National Weather Service United States Department of Commerce

 

Aviation Weather Center TAFs Radar Soundings/Model Data Soaring
NWS Wichita Home Page Hazardous Weather Outlook NWS Graphical Forecasts

 

Wichita (ICT)
Hutchinson (HUT)
Tactical Decision Aid
 
Tactical Decision Aid
 

 
000
FTUS43 KICT 191723
TAFICT
TAF
KICT 191723Z 1918/2018 18020G28KT P6SM SKC
FM200200 18014KT P6SM SKC WS020/21045KT
FM200900 21011KT P6SM FEW250
FM201300 32014G20KT P6SM FEW250=
 
000
FTUS43 KICT 191723
TAFHUT
TAF
KHUT 191723Z 1918/2018 18020G28KT P6SM SKC
FM200200 18014KT P6SM SKC WS020/20045KT
FM200800 24009KT P6SM FEW250
FM201200 31014G22KT P6SM SKC=
Salina (SLN) Russell (RSL)
Tactical Decision Aid
Tactical Decision Aid

 
000
FTUS43 KICT 191723
TAFSLN
TAF
KSLN 191723Z 1918/2018 18020G28KT P6SM SKC
FM200200 18014KT P6SM FEW250 WS020/20050KT
FM200800 22010KT P6SM FEW250
FM201300 29015G23KT P6SM FEW250=

 
000
FTUS43 KICT 191723
TAFRSL
TAF
KRSL 191723Z 1918/2018 19021G30KT P6SM SKC
FM200300 23013KT P6SM FEW250
FM201100 31017G25KT P6SM SKC=
Chanute (CNU) Great Bend (GBD)
Tactical Decision Aid
Tactical Decision Aid

 
000
FTUS43 KICT 191723
TAFCNU
TAF
KCNU 191723Z 1918/2018 18018G27KT P6SM SKC
FM200100 16015KT P6SM FEW250 WS020/19045KT
FM201300 20012KT P6SM SCT100
FM201600 23010KT P6SM SCT050=

 
000
FTUS43 KICT 191723
TAFGBD
TAF
KGBD 191723Z 1918/2018 19020G28KT P6SM SKC
FM200300 23013KT P6SM FEW250
FM201200 31017G25KT P6SM SKC=
 
NWS Wichita Aviation Forecast Discussion

 

 

IMPORTANT: This page is a tool to help pilots better visualize weather and weather-related hazards, and is not a substitute for a weather briefing obtained from a Flight Service Station (1-800-WXBRIEF). The information contained here does not meet the FAA requirements for a pre-flight weather brief. Therefore, it is important that pilots call and obtain a briefing from an FAA Flight Service Specialist.